Time;durP1;ratioP1;P1;durP2;ratioP2;P2;SDS_P1;SDS_P2;PMS_P1;PMS_P2;Temp;Humidity;BMP_temperature;BMP_pressure;BME280_temperature;BME280_humidity;BME280_pressure;Samples;Min_cycle;Max_cycle;Signal;HPM_P1;HPM_P2
2020/12/22 00:02:25;;;;;;;78.90;35.03;;;3.30;99.90;;;;;;4379951;32;20174;-75
2020/12/22 00:04:51;;;;;;;74.40;34.67;;;3.30;99.90;;;;;;4379653;32;20194;-74
2020/12/22 00:07:18;;;;;;;79.47;35.27;;;3.30;99.90;;;;;;4379604;32;20160;-75
2020/12/22 00:09:45;;;;;;;81.17;35.37;;;3.30;99.90;;;;;;4379710;32;20149;-75
2020/12/22 00:12:15;;;;;;;82.67;36.27;;;3.20;99.90;;;;;;4379472;32;20176;-75
2020/12/22 00:14:45;;;;;;;83.23;35.37;;;3.10;99.90;;;;;;4379253;32;20407;-75
2020/12/22 00:17:12;;;;;;;78.27;35.07;;;3.10;99.90;;;;;;4379376;32;20164;-75
2020/12/22 00:19:38;;;;;;;83.67;35.60;;;3.10;99.90;;;;;;4379556;32;20228;-75
2020/12/22 00:22:05;;;;;;;81.60;36.10;;;3.20;99.90;;;;;;4379477;32;20152;-75
2020/12/22 00:24:31;;;;;;;84.17;34.03;;;3.10;99.90;;;;;;4378883;32;20231;-75
2020/12/22 00:26:58;;;;;;;79.47;34.27;;;3.10;99.90;;;;;;4380858;32;20148;-74
2020/12/22 00:29:24;;;;;;;82.93;36.90;;;3.10;99.90;;;;;;4378931;32;20559;-74
2020/12/22 00:31:51;;;;;;;84.13;35.70;;;3.20;99.90;;;;;;4379219;32;20474;-75
2020/12/22 00:34:18;;;;;;;86.37;37.37;;;3.20;99.90;;;;;;4379149;32;20156;-75
2020/12/22 00:36:47;;;;;;;82.20;35.83;;;3.20;99.90;;;;;;4379335;32;20167;-76
2020/12/22 00:39:13;;;;;;;86.97;36.17;;;3.20;99.90;;;;;;4378962;32;20233;-75
2020/12/22 00:41:39;;;;;;;86.27;37.57;;;3.30;99.90;;;;;;4380652;32;20191;-76
2020/12/22 00:44:06;;;;;;;88.33;36.60;;;3.40;99.90;;;;;;4379928;32;20166;-76
2020/12/22 00:46:32;;;;;;;86.60;37.23;;;3.30;99.90;;;;;;4365160;32;20258;-76
2020/12/22 00:48:59;;;;;;;79.70;36.93;;;3.30;99.90;;;;;;4380547;32;20144;-76
2020/12/22 00:51:26;;;;;;;76.97;36.20;;;3.40;99.90;;;;;;4379347;32;20191;-75
2020/12/22 00:53:53;;;;;;;81.00;36.37;;;3.30;99.90;;;;;;4379053;32;20179;-75
2020/12/22 00:56:19;;;;;;;83.73;37.17;;;3.30;99.90;;;;;;4379058;32;20159;-76
2020/12/22 00:58:48;;;;;;;77.43;36.10;;;3.30;99.90;;;;;;4380442;32;20167;-75
2020/12/22 01:01:15;;;;;;;82.13;35.83;;;3.30;99.90;;;;;;4379019;32;20177;-76
2020/12/22 01:03:42;;;;;;;79.97;35.30;;;3.30;99.90;;;;;;4380320;32;20409;-75
2020/12/22 01:06:09;;;;;;;76.17;34.73;;;3.30;99.90;;;;;;4380445;32;20156;-75
2020/12/22 01:08:35;;;;;;;78.13;35.20;;;3.30;99.90;;;;;;4378959;32;20398;-75
2020/12/22 01:11:02;;;;;;;83.10;37.23;;;3.30;99.90;;;;;;4378838;32;20186;-75
2020/12/22 01:13:30;;;;;;;79.03;35.23;;;3.30;99.90;;;;;;4378903;32;20148;-75
2020/12/22 01:15:57;;;;;;;80.17;34.20;;;3.30;99.90;;;;;;4378816;32;20167;-74
2020/12/22 01:18:41;;;;;;;75.10;34.43;;;3.40;99.90;;;;;;4378597;32;20164;-75
2020/12/22 01:21:07;;;;;;;76.73;34.77;;;3.30;99.90;;;;;;4378235;32;20193;-75
2020/12/22 01:23:35;;;;;;;76.67;34.87;;;3.30;99.90;;;;;;4379670;32;20217;-74
2020/12/22 01:26:03;;;;;;;75.07;33.90;;;3.30;99.90;;;;;;4378814;32;20136;-75
2020/12/22 01:28:30;;;;;;;77.93;35.03;;;3.30;99.90;;;;;;4378222;32;20513;-74
2020/12/22 01:30:56;;;;;;;76.67;35.13;;;3.20;99.90;;;;;;4378926;32;20196;-74
2020/12/22 01:33:22;;;;;;;75.07;34.87;;;3.20;99.90;;;;;;4377467;32;20178;-74
2020/12/22 01:35:49;;;;;;;75.57;32.77;;;3.20;99.90;;;;;;4378186;32;20397;-73
2020/12/22 01:38:15;;;;;;;76.53;33.63;;;3.20;99.90;;;;;;4378096;32;20194;-73
2020/12/22 01:40:49;;;;;;;73.47;32.47;;;3.20;99.90;;;;;;4379241;32;20152;-74
2020/12/22 01:43:16;;;;;;;69.10;31.93;;;3.10;99.90;;;;;;4378182;32;20148;-74
2020/12/22 01:45:43;;;;;;;78.20;33.27;;;3.10;99.90;;;;;;4377970;32;20223;-74
2020/12/22 01:48:10;;;;;;;71.53;32.53;;;3.10;99.90;;;;;;4380510;32;20191;-74
2020/12/22 01:50:37;;;;;;;64.80;30.87;;;3.20;99.90;;;;;;4380635;32;20423;-74
2020/12/22 01:53:03;;;;;;;67.10;31.70;;;3.10;99.90;;;;;;4380870;32;20203;-73
2020/12/22 01:55:30;;;;;;;70.90;31.80;;;3.10;99.90;;;;;;4380511;32;20179;-74
2020/12/22 01:57:57;;;;;;;69.50;32.43;;;3.20;99.90;;;;;;4380455;32;20139;-74
2020/12/22 02:00:23;;;;;;;66.07;31.63;;;3.20;99.90;;;;;;4382013;32;20171;-73
2020/12/22 02:02:49;;;;;;;67.03;31.50;;;3.20;99.90;;;;;;4380137;32;20194;-73
2020/12/22 02:05:16;;;;;;;63.53;29.73;;;3.20;99.90;;;;;;4380459;32;20190;-73
2020/12/22 02:07:42;;;;;;;67.33;31.40;;;3.20;99.90;;;;;;4380620;32;20147;-73
2020/12/22 02:10:09;;;;;;;66.33;29.70;;;3.30;99.90;;;;;;4380439;32;20156;-73
2020/12/22 02:12:40;;;;;;;66.40;29.93;;;3.20;99.90;;;;;;4380548;32;20166;-74
2020/12/22 02:15:07;;;;;;;60.80;29.10;;;3.30;99.90;;;;;;4379914;32;20202;-74
2020/12/22 02:17:35;;;;;;;59.50;28.37;;;3.30;99.90;;;;;;4382421;32;20278;-73
2020/12/22 02:20:03;;;;;;;59.37;28.03;;;3.30;99.90;;;;;;4381408;32;20186;-73
2020/12/22 02:22:29;;;;;;;63.10;28.83;;;3.30;99.90;;;;;;4382640;32;20163;-73
2020/12/22 02:24:56;;;;;;;61.40;29.23;;;3.40;99.90;;;;;;4382351;32;20190;-73
2020/12/22 02:27:22;;;;;;;57.77;28.47;;;3.30;99.90;;;;;;4381316;32;20144;-74
2020/12/22 02:29:48;;;;;;;57.83;28.13;;;3.30;99.90;;;;;;4381168;32;20136;-73
2020/12/22 02:32:15;;;;;;;68.33;30.50;;;3.30;99.90;;;;;;4381071;32;20166;-73
2020/12/22 02:34:44;;;;;;;61.80;30.33;;;3.30;99.90;;;;;;4380992;32;20186;-73
2020/12/22 02:37:10;;;;;;;65.30;31.27;;;3.30;99.90;;;;;;4380967;32;20196;-74
2020/12/22 02:39:36;;;;;;;63.23;30.50;;;3.40;99.90;;;;;;4380991;32;20442;-73
2020/12/22 02:42:03;;;;;;;64.60;30.80;;;3.40;99.90;;;;;;4380893;32;20140;-73
2020/12/22 02:44:29;;;;;;;68.50;32.23;;;3.40;99.90;;;;;;4380947;32;20186;-73
2020/12/22 02:46:55;;;;;;;68.00;31.67;;;3.40;99.90;;;;;;4381416;32;20159;-73
2020/12/22 02:49:39;;;;;;;64.00;30.77;;;3.40;99.90;;;;;;4380857;32;20207;-73
2020/12/22 02:52:05;;;;;;;63.43;30.57;;;3.30;99.90;;;;;;4380754;32;20156;-73
2020/12/22 02:54:32;;;;;;;64.50;30.17;;;3.30;99.90;;;;;;4382216;32;20189;-73
2020/12/22 02:56:59;;;;;;;63.67;31.87;;;3.30;99.90;;;;;;4380707;32;20435;-73
2020/12/22 02:59:25;;;;;;;62.83;31.23;;;3.20;99.90;;;;;;4379859;32;20371;-74
2020/12/22 03:01:52;;;;;;;70.87;32.53;;;3.30;99.90;;;;;;4381893;32;20167;-73
2020/12/22 03:04:19;;;;;;;70.07;32.33;;;3.30;99.90;;;;;;4380609;32;20165;-73
2020/12/22 03:06:45;;;;;;;71.63;31.17;;;3.30;99.90;;;;;;4380136;32;20137;-73
2020/12/22 03:09:12;;;;;;;69.30;33.10;;;3.20;99.90;;;;;;4380483;32;20387;-73
2020/12/22 03:11:38;;;;;;;71.97;32.50;;;3.20;99.90;;;;;;4381877;32;20215;-74
2020/12/22 03:14:05;;;;;;;65.20;31.70;;;3.10;99.90;;;;;;4380510;32;20140;-74
2020/12/22 03:16:31;;;;;;;71.47;32.53;;;3.10;99.90;;;;;;4380958;32;20175;-73
2020/12/22 03:18:58;;;;;;;64.83;31.23;;;3.20;99.90;;;;;;4380333;32;20143;-73
2020/12/22 03:21:25;;;;;;;66.13;30.63;;;3.10;99.90;;;;;;4380623;32;20190;-73
2020/12/22 03:23:51;;;;;;;66.97;32.20;;;3.10;99.90;;;;;;4381329;32;20136;-73
2020/12/22 03:26:17;;;;;;;68.00;30.63;;;3.00;99.90;;;;;;4381753;32;20166;-73
2020/12/22 03:28:44;;;;;;;67.93;30.93;;;3.00;99.90;;;;;;4380193;32;20163;-73
2020/12/22 03:31:10;;;;;;;67.60;30.97;;;3.00;99.90;;;;;;4380166;32;20332;-73
2020/12/22 03:33:37;;;;;;;68.80;32.13;;;2.90;99.90;;;;;;4379887;32;20152;-74
2020/12/22 03:36:03;;;;;;;69.80;32.10;;;2.90;99.90;;;;;;4380114;32;20198;-73
2020/12/22 03:38:30;;;;;;;70.30;32.57;;;2.80;99.90;;;;;;4380148;32;20144;-73
2020/12/22 03:40:56;;;;;;;71.27;32.77;;;2.80;99.90;;;;;;4380140;32;20178;-73
2020/12/22 03:43:23;;;;;;;70.30;34.13;;;2.70;99.90;;;;;;4381531;32;20178;-74
2020/12/22 03:45:49;;;;;;;68.40;31.37;;;2.70;99.90;;;;;;4379871;32;20441;-74
2020/12/22 03:48:15;;;;;;;69.83;32.33;;;2.70;99.90;;;;;;4380081;32;20143;-73
2020/12/22 03:50:42;;;;;;;70.33;32.83;;;2.70;99.90;;;;;;4380383;32;20181;-74
2020/12/22 03:53:08;;;;;;;70.87;32.60;;;2.70;99.90;;;;;;4379868;32;20152;-73
2020/12/22 03:55:35;;;;;;;68.63;32.03;;;2.80;99.90;;;;;;4381157;32;20156;-73
2020/12/22 03:58:01;;;;;;;71.93;32.87;;;2.70;99.90;;;;;;4380691;32;20204;-73
2020/12/22 04:00:28;;;;;;;70.13;32.60;;;2.70;99.90;;;;;;4381265;32;20334;-73
2020/12/22 04:02:54;;;;;;;69.83;33.07;;;2.60;99.90;;;;;;4379744;32;20175;-73
2020/12/22 04:05:20;;;;;;;74.20;33.37;;;2.60;99.90;;;;;;4379069;32;20140;-74
2020/12/22 04:07:47;;;;;;;71.27;31.97;;;2.60;99.90;;;;;;4379452;32;20143;-73
2020/12/22 04:10:14;;;;;;;68.50;31.70;;;2.70;99.90;;;;;;4380247;32;20207;-73
2020/12/22 04:12:40;;;;;;;74.80;33.37;;;2.60;99.90;;;;;;4379558;32;20155;-73
2020/12/22 04:15:06;;;;;;;76.23;32.33;;;2.60;99.90;;;;;;4379686;32;20207;-73
2020/12/22 04:17:33;;;;;;;70.97;31.53;;;2.60;99.90;;;;;;4379462;32;20159;-73
2020/12/22 04:19:59;;;;;;;69.83;31.67;;;2.70;99.90;;;;;;4380190;32;20398;-73
2020/12/22 04:22:25;;;;;;;70.03;31.97;;;2.70;99.90;;;;;;4380033;32;20458;-73
2020/12/22 04:24:52;;;;;;;73.03;31.97;;;2.70;99.90;;;;;;4378885;32;20478;-73
2020/12/22 04:27:18;;;;;;;70.43;31.73;;;2.60;99.90;;;;;;4379506;32;20436;-73
2020/12/22 04:29:44;;;;;;;67.53;31.17;;;2.60;99.90;;;;;;4379754;32;20182;-73
2020/12/22 04:32:11;;;;;;;69.20;31.10;;;2.70;99.90;;;;;;4379294;32;20179;-73
2020/12/22 04:34:37;;;;;;;72.37;32.00;;;2.60;99.90;;;;;;4379343;32;20164;-73
2020/12/22 04:37:04;;;;;;;72.87;32.03;;;2.60;99.90;;;;;;4379395;32;20135;-73
2020/12/22 04:39:30;;;;;;;68.47;30.80;;;2.70;99.90;;;;;;4378722;32;20148;-73
2020/12/22 04:41:57;;;;;;;65.03;30.30;;;2.60;99.90;;;;;;4379310;32;20141;-73
2020/12/22 04:44:24;;;;;;;67.60;30.20;;;2.70;99.90;;;;;;4379536;32;20202;-73
2020/12/22 04:46:52;;;;;;;70.60;30.63;;;2.60;99.90;;;;;;4379231;32;20139;-73
2020/12/22 04:49:24;;;;;;;69.30;30.47;;;2.70;99.90;;;;;;4379157;32;20139;-73
2020/12/22 04:51:52;;;;;;;63.67;29.73;;;2.70;99.90;;;;;;4379104;32;20152;-74
2020/12/22 04:54:37;;;;;;;66.00;29.13;;;2.70;99.90;;;;;;4380658;32;20543;-73
2020/12/22 04:57:05;;;;;;;65.37;30.03;;;2.60;99.90;;;;;;4379062;32;20131;-73
2020/12/22 04:59:32;;;;;;;66.80;29.93;;;2.60;99.90;;;;;;4379093;32;20212;-73
2020/12/22 05:01:59;;;;;;;65.73;29.27;;;2.60;99.90;;;;;;4378840;32;20144;-73
2020/12/22 05:04:35;;;;;;;63.90;29.43;;;2.60;99.90;;;;;;4379750;32;20162;-74
2020/12/22 05:07:09;;;;;;;62.27;27.67;;;2.60;99.90;;;;;;4379315;32;20158;-74
2020/12/22 05:09:36;;;;;;;60.67;28.37;;;2.60;99.90;;;;;;4379329;32;20140;-74
2020/12/22 05:12:02;;;;;;;64.10;29.27;;;2.70;99.90;;;;;;4378939;32;20394;-74
2020/12/22 05:14:29;;;;;;;60.97;27.93;;;2.70;99.90;;;;;;4378983;32;20140;-74
2020/12/22 05:16:56;;;;;;;61.07;27.80;;;2.70;99.90;;;;;;4378894;32;20223;-74
2020/12/22 05:19:24;;;;;;;64.33;28.27;;;2.70;99.90;;;;;;4378881;32;20178;-74
2020/12/22 05:21:54;;;;;;;64.20;27.90;;;2.60;99.90;;;;;;4380109;32;20140;-74
2020/12/22 05:24:22;;;;;;;60.93;27.03;;;2.60;99.90;;;;;;4381988;32;20171;-74
2020/12/22 05:26:49;;;;;;;58.73;26.43;;;2.60;99.90;;;;;;4381949;32;20166;-73
2020/12/22 05:29:18;;;;;;;62.00;26.57;;;2.60;99.90;;;;;;4381957;32;20143;-74
2020/12/22 05:31:49;;;;;;;53.10;25.73;;;2.60;99.90;;;;;;4381915;32;20179;-74
2020/12/22 05:34:18;;;;;;;63.13;25.83;;;2.60;99.90;;;;;;4381863;32;20164;-73
2020/12/22 05:36:46;;;;;;;56.37;26.17;;;2.70;99.90;;;;;;4383353;32;20167;-74
2020/12/22 05:39:14;;;;;;;54.47;24.97;;;2.60;99.90;;;;;;4381682;32;20451;-73
2020/12/22 05:41:40;;;;;;;53.97;25.47;;;2.60;99.90;;;;;;4382309;32;20145;-73
2020/12/22 05:44:08;;;;;;;55.23;25.27;;;2.60;99.90;;;;;;4383150;32;20158;-73
2020/12/22 05:46:38;;;;;;;59.07;25.93;;;2.60;99.90;;;;;;4382968;32;20194;-74
2020/12/22 05:49:10;;;;;;;54.30;24.00;;;2.70;99.90;;;;;;4381967;32;20512;-74
2020/12/22 05:51:44;;;;;;;54.03;24.73;;;2.70;99.90;;;;;;4381145;32;20212;-73
2020/12/22 05:54:15;;;;;;;53.67;25.30;;;2.80;99.90;;;;;;4382611;32;20144;-73
2020/12/22 05:56:44;;;;;;;55.83;24.53;;;2.70;99.90;;;;;;4381832;32;20164;-74
2020/12/22 05:59:28;;;;;;;53.50;25.40;;;2.60;99.90;;;;;;4382101;32;20417;-75
2020/12/22 06:01:58;;;;;;;54.27;25.10;;;2.60;99.90;;;;;;4382030;32;20175;-74
2020/12/22 06:04:25;;;;;;;52.03;25.00;;;2.60;99.90;;;;;;4381655;32;20485;-74
2020/12/22 06:06:52;;;;;;;54.70;24.30;;;2.60;99.90;;;;;;4381330;32;20136;-74
2020/12/22 06:09:19;;;;;;;53.87;23.87;;;2.60;99.90;;;;;;4381418;32;20199;-74
2020/12/22 06:11:47;;;;;;;50.37;23.60;;;2.60;99.90;;;;;;4382018;32;20430;-74
2020/12/22 06:14:26;;;;;;;52.00;22.93;;;2.60;99.90;;;;;;4381393;32;20191;-75
2020/12/22 06:17:04;;;;;;;51.20;23.57;;;2.60;99.90;;;;;;4381262;32;20247;-74
2020/12/22 06:19:35;;;;;;;58.17;24.67;;;2.50;99.90;;;;;;4382409;32;20170;-73
2020/12/22 06:22:02;;;;;;;51.60;24.30;;;2.40;99.90;;;;;;4381336;32;20451;-73
2020/12/22 06:24:30;;;;;;;52.77;23.67;;;2.40;99.90;;;;;;4382534;32;20136;-73
2020/12/22 06:27:02;;;;;;;52.33;23.83;;;2.40;99.90;;;;;;4382278;32;20515;-73
2020/12/22 06:29:29;;;;;;;53.37;24.37;;;2.40;99.90;;;;;;4382574;32;20163;-73
2020/12/22 06:32:17;;;;;;;55.13;24.00;;;2.50;99.90;;;;;;4380606;32;20433;-73
2020/12/22 06:34:44;;;;;;;54.27;23.93;;;2.60;99.90;;;;;;4382560;32;20144;-74
2020/12/22 06:37:11;;;;;;;54.30;24.30;;;2.50;99.90;;;;;;4382265;32;20227;-73
2020/12/22 06:39:45;;;;;;;51.63;23.60;;;2.40;99.90;;;;;;4382417;32;20198;-73
2020/12/22 06:42:30;;;;;;;54.20;23.80;;;2.40;99.90;;;;;;4380817;32;20216;-73
2020/12/22 06:45:26;;;;;;;48.07;22.73;;;2.40;99.90;;;;;;4381372;32;20365;-73
2020/12/22 06:47:59;;;;;;;48.70;22.03;;;2.40;99.90;;;;;;4380992;32;20147;-74
2020/12/22 06:50:40;;;;;;;50.83;22.83;;;2.30;99.90;;;;;;4381338;32;20148;-74
2020/12/22 06:53:34;;;;;;;50.40;22.23;;;2.40;99.90;;;;;;4380668;32;20201;-74
2020/12/22 06:56:05;;;;;;;48.00;21.63;;;2.40;99.90;;;;;;4382137;32;20170;-74
2020/12/22 06:58:38;;;;;;;51.90;23.20;;;2.40;99.90;;;;;;4380646;32;20162;-74
2020/12/22 07:01:24;;;;;;;49.43;22.77;;;2.40;99.90;;;;;;4380772;32;20500;-75
2020/12/22 07:04:10;;;;;;;50.07;22.13;;;2.50;99.90;;;;;;4380871;32;20367;-74
2020/12/22 07:07:02;;;;;;;49.40;22.07;;;2.50;99.90;;;;;;4382196;32;20162;-74
2020/12/22 07:09:35;;;;;;;49.50;21.93;;;2.40;99.90;;;;;;4382000;32;20159;-74
2020/12/22 07:12:10;;;;;;;50.50;22.23;;;2.50;99.90;;;;;;4380935;32;20156;-74
2020/12/22 07:14:50;;;;;;;45.40;21.10;;;2.60;99.90;;;;;;4380409;32;20440;-73
2020/12/22 07:17:18;;;;;;;48.77;21.60;;;2.50;99.90;;;;;;4380421;32;20159;-74
2020/12/22 07:19:54;;;;;;;46.37;21.67;;;2.50;99.90;;;;;;4380334;32;20206;-74
2020/12/22 07:22:34;;;;;;;44.43;20.33;;;2.50;99.90;;;;;;4380747;32;20336;-73
2020/12/22 07:25:02;;;;;;;42.93;20.40;;;2.50;99.90;;;;;;4380331;32;20399;-74
2020/12/22 07:27:30;;;;;;;46.70;21.43;;;2.50;99.90;;;;;;4380302;32;20509;-74
2020/12/22 07:29:57;;;;;;;47.97;21.93;;;2.50;99.90;;;;;;4380338;32;20179;-74
2020/12/22 07:32:24;;;;;;;42.43;19.20;;;2.60;99.90;;;;;;4379894;32;20516;-74
2020/12/22 07:34:51;;;;;;;46.67;20.73;;;2.60;99.90;;;;;;4380164;32;20395;-74
2020/12/22 07:37:18;;;;;;;47.20;20.50;;;2.50;99.90;;;;;;4380200;32;20140;-74
2020/12/22 07:39:44;;;;;;;49.67;21.97;;;2.50;99.90;;;;;;4380076;32;20175;-74
2020/12/22 07:42:16;;;;;;;45.63;20.93;;;2.50;99.90;;;;;;4380057;32;20136;-75
2020/12/22 07:44:44;;;;;;;46.50;20.83;;;2.50;99.90;;;;;;4380910;32;20152;-74
2020/12/22 07:47:11;;;;;;;46.83;20.57;;;2.50;99.90;;;;;;4379892;32;20159;-75
2020/12/22 07:49:39;;;;;;;43.20;20.70;;;2.50;99.90;;;;;;4381026;32;20215;-74
2020/12/22 07:52:16;;;;;;;43.97;20.73;;;2.60;99.90;;;;;;4381537;32;20155;-75
2020/12/22 07:54:55;;;;;;;41.83;19.40;;;2.60;99.90;;;;;;4380051;32;20207;-74
2020/12/22 07:57:22;;;;;;;45.17;20.87;;;2.60;99.90;;;;;;4381451;32;20140;-74
2020/12/22 07:59:51;;;;;;;46.27;20.23;;;2.60;99.90;;;;;;4379922;32;20338;-75
2020/12/22 08:02:23;;;;;;;45.83;21.20;;;2.60;99.90;;;;;;4381187;32;20144;-75
2020/12/22 08:04:50;;;;;;;45.17;20.47;;;2.60;99.90;;;;;;4379997;32;20147;-75
2020/12/22 08:07:18;;;;;;;44.23;20.23;;;2.70;99.90;;;;;;4380634;32;20171;-75
2020/12/22 08:09:44;;;;;;;43.80;20.43;;;2.60;99.90;;;;;;4381035;32;20449;-74
2020/12/22 08:12:11;;;;;;;46.13;21.63;;;2.60;99.90;;;;;;4379580;32;20148;-75
2020/12/22 08:14:39;;;;;;;41.23;19.40;;;2.50;99.90;;;;;;4380171;32;20189;-75
2020/12/22 08:17:16;;;;;;;39.43;19.87;;;2.50;99.90;;;;;;4379578;32;20450;-75
2020/12/22 08:19:43;;;;;;;42.77;19.23;;;2.50;99.90;;;;;;4381139;32;20202;-74
2020/12/22 08:22:14;;;;;;;43.57;20.30;;;2.50;99.90;;;;;;4379573;32;20152;-75
2020/12/22 08:24:41;;;;;;;44.93;19.83;;;2.50;99.90;;;;;;4379720;32;20140;-74
2020/12/22 08:27:07;;;;;;;39.63;19.87;;;2.40;99.90;;;;;;4380943;32;20136;-75
2020/12/22 08:29:37;;;;;;;42.63;19.37;;;2.40;99.90;;;;;;4379347;32;20201;-74
2020/12/22 08:32:05;;;;;;;43.53;20.47;;;2.40;99.90;;;;;;4380785;32;20463;-75
2020/12/22 08:34:31;;;;;;;43.60;19.53;;;2.40;99.90;;;;;;4380538;32;20163;-74
2020/12/22 08:37:09;;;;;;;42.73;19.83;;;2.40;99.90;;;;;;4379646;32;20167;-74
2020/12/22 08:39:40;;;;;;;44.80;19.77;;;2.40;99.90;;;;;;4379845;32;20395;-75
2020/12/22 08:42:08;;;;;;;42.40;19.77;;;2.40;99.90;;;;;;4378891;32;20148;-75
2020/12/22 08:44:35;;;;;;;42.20;19.20;;;2.40;99.90;;;;;;4379015;32;20171;-74
2020/12/22 08:47:12;;;;;;;41.47;19.13;;;2.40;99.90;;;;;;4379210;32;20295;-75
2020/12/22 08:49:39;;;;;;;42.80;19.47;;;2.40;99.90;;;;;;4379186;32;20194;-75
2020/12/22 08:52:17;;;;;;;46.07;19.43;;;2.40;99.90;;;;;;4379132;32;20194;-74
2020/12/22 08:54:45;;;;;;;43.07;19.37;;;2.40;99.90;;;;;;4380638;32;20370;-74
2020/12/22 08:57:23;;;;;;;40.93;19.30;;;2.40;99.90;;;;;;4378972;32;20459;-73
2020/12/22 08:59:50;;;;;;;39.43;18.30;;;2.40;99.90;;;;;;4378693;32;20139;-73
2020/12/22 09:02:30;;;;;;;40.10;19.47;;;2.40;99.90;;;;;;4378933;32;20185;-73
2020/12/22 09:04:57;;;;;;;40.10;18.17;;;2.50;99.90;;;;;;4378886;32;20140;-73
2020/12/22 09:07:27;;;;;;;38.00;18.13;;;2.40;99.90;;;;;;4378868;32;20149;-74
2020/12/22 09:09:55;;;;;;;38.43;19.10;;;2.40;99.90;;;;;;4378726;32;20136;-74
2020/12/22 09:12:27;;;;;;;36.30;17.27;;;2.50;99.90;;;;;;4379672;32;20190;-73
2020/12/22 09:14:58;;;;;;;39.87;18.97;;;2.40;99.90;;;;;;4378194;32;20190;-73
2020/12/22 09:17:38;;;;;;;38.93;18.60;;;2.40;99.90;;;;;;4378687;32;20242;-74
2020/12/22 09:20:06;;;;;;;38.73;17.67;;;2.40;99.90;;;;;;4378884;32;20356;-75
2020/12/22 09:22:34;;;;;;;37.77;17.97;;;2.50;99.90;;;;;;4379456;32;20198;-74
2020/12/22 09:25:04;;;;;;;35.87;17.63;;;2.50;99.90;;;;;;4379815;32;20197;-74
2020/12/22 09:27:44;;;;;;;39.10;17.73;;;2.50;99.90;;;;;;4380143;32;20166;-73
2020/12/22 09:30:15;;;;;;;39.70;18.20;;;2.50;99.90;;;;;;4378820;32;20458;-73
2020/12/22 09:32:45;;;;;;;38.67;18.53;;;2.40;99.90;;;;;;4378664;32;20167;-73
2020/12/22 09:35:12;;;;;;;40.97;18.80;;;2.50;99.90;;;;;;4378575;32;20132;-73
2020/12/22 09:37:39;;;;;;;38.83;18.47;;;2.50;99.90;;;;;;4378591;32;20144;-73
2020/12/22 09:40:05;;;;;;;41.40;18.53;;;2.50;99.90;;;;;;4378042;32;20140;-74
2020/12/22 09:42:32;;;;;;;42.13;19.57;;;2.50;99.90;;;;;;4378755;32;20455;-76
2020/12/22 09:44:58;;;;;;;39.10;18.87;;;2.40;99.90;;;;;;4378884;32;20193;-75
2020/12/22 09:47:25;;;;;;;38.43;17.87;;;2.40;99.90;;;;;;4380065;32;20186;-76
2020/12/22 09:49:51;;;;;;;37.13;17.70;;;2.40;99.90;;;;;;4378870;32;20378;-75
2020/12/22 09:52:18;;;;;;;39.00;17.93;;;2.40;99.90;;;;;;4378507;32;20148;-75
2020/12/22 09:54:45;;;;;;;43.47;18.13;;;2.40;99.90;;;;;;4378650;32;20409;-75
2020/12/22 09:57:11;;;;;;;39.30;18.17;;;2.50;99.90;;;;;;4378508;32;20410;-74
2020/12/22 09:59:37;;;;;;;38.67;18.67;;;2.40;99.90;;;;;;4378491;32;20175;-74
2020/12/22 10:02:04;;;;;;;43.43;19.27;;;2.30;99.90;;;;;;4378495;32;20209;-73
2020/12/22 10:04:33;;;;;;;41.73;19.07;;;2.30;99.90;;;;;;4378439;32;20135;-73
2020/12/22 10:07:01;;;;;;;43.67;19.33;;;2.30;99.90;;;;;;4378542;32;20183;-73
2020/12/22 10:09:28;;;;;;;40.63;19.07;;;2.30;99.90;;;;;;4381314;32;20143;-72
2020/12/22 10:11:54;;;;;;;48.10;20.50;;;2.30;99.90;;;;;;4380972;32;20248;-72
2020/12/22 10:14:20;;;;;;;46.20;20.13;;;2.30;99.90;;;;;;4381248;32;20223;-73
2020/12/22 10:16:47;;;;;;;44.80;20.10;;;2.30;99.90;;;;;;4381008;32;20182;-73
2020/12/22 10:19:13;;;;;;;45.83;19.93;;;2.30;99.90;;;;;;4380876;32;20411;-72
2020/12/22 10:21:40;;;;;;;44.30;19.83;;;2.30;99.90;;;;;;4380978;32;20182;-71
2020/12/22 10:24:06;;;;;;;50.13;21.13;;;2.30;99.90;;;;;;4380972;32;20147;-72
2020/12/22 10:26:33;;;;;;;47.07;20.67;;;2.20;99.90;;;;;;4382151;32;20141;-72
2020/12/22 10:29:00;;;;;;;46.33;21.13;;;2.30;99.90;;;;;;4381568;32;20516;-72
2020/12/22 10:31:28;;;;;;;47.23;19.90;;;2.20;99.90;;;;;;4380942;32;20167;-72
2020/12/22 10:33:56;;;;;;;46.40;19.97;;;2.30;99.90;;;;;;4380585;32;20168;-73
2020/12/22 10:36:25;;;;;;;43.10;19.37;;;2.30;99.90;;;;;;4380723;32;20140;-72
2020/12/22 10:38:54;;;;;;;45.83;20.13;;;2.30;99.90;;;;;;4380645;32;20144;-72
2020/12/22 10:41:20;;;;;;;48.83;20.97;;;2.30;99.90;;;;;;4380704;32;20152;-72
2020/12/22 10:43:48;;;;;;;48.27;21.07;;;2.30;99.90;;;;;;4380554;32;20148;-72
2020/12/22 10:46:14;;;;;;;48.20;21.00;;;2.30;99.90;;;;;;4380629;32;20175;-71
2020/12/22 10:48:42;;;;;;;51.83;21.37;;;2.30;99.90;;;;;;4382329;32;20139;-71
2020/12/22 10:51:09;;;;;;;44.77;19.83;;;2.30;99.90;;;;;;4380538;32;20203;-73
2020/12/22 10:53:36;;;;;;;47.50;20.87;;;2.40;99.90;;;;;;4380421;32;20198;-73
2020/12/22 10:56:07;;;;;;;48.03;20.83;;;2.40;99.90;;;;;;4380414;32;20190;-72
2020/12/22 10:58:33;;;;;;;45.43;21.07;;;2.40;99.90;;;;;;4380354;32;20136;-72
2020/12/22 11:01:00;;;;;;;48.33;21.70;;;2.40;99.90;;;;;;4381519;32;20203;-72
2020/12/22 11:03:26;;;;;;;51.20;22.40;;;2.30;99.90;;;;;;4381711;32;20320;-73
2020/12/22 11:08:52;;;;;;;50.13;22.20;;;2.40;99.90;;;;;;4333723;33;20545;-72
2020/12/22 11:11:19;;;;;;;46.33;21.03;;;2.40;99.90;;;;;;4333870;33;20271;-73
2020/12/22 11:13:45;;;;;;;46.83;21.20;;;2.40;99.90;;;;;;4333837;33;20188;-74
2020/12/22 11:16:12;;;;;;;50.03;21.43;;;2.40;99.90;;;;;;4333502;33;20179;-73
2020/12/22 11:18:39;;;;;;;47.87;21.97;;;2.40;99.90;;;;;;4333035;33;20283;-73
2020/12/22 11:21:10;;;;;;;54.57;22.63;;;2.40;99.90;;;;;;4333467;33;20153;-73
2020/12/22 11:23:44;;;;;;;54.53;22.10;;;2.40;99.90;;;;;;4333834;33;20152;-73
2020/12/22 11:26:22;;;;;;;46.27;20.53;;;2.50;99.90;;;;;;4333646;33;20621;-73
2020/12/22 11:28:49;;;;;;;48.00;21.73;;;2.50;99.90;;;;;;4333386;33;20141;-73
2020/12/22 11:31:16;;;;;;;49.37;22.13;;;2.50;99.90;;;;;;4333377;33;20145;-73
2020/12/22 11:33:43;;;;;;;47.50;20.47;;;2.50;99.90;;;;;;4333243;33;20191;-74
2020/12/22 11:36:15;;;;;;;50.37;21.07;;;2.50;99.90;;;;;;4334996;33;20153;-73
2020/12/22 11:38:44;;;;;;;49.00;22.10;;;2.50;99.90;;;;;;4333714;33;20471;-72
2020/12/22 11:41:11;;;;;;;47.47;22.00;;;2.50;99.90;;;;;;4333208;33;20149;-73
2020/12/22 11:43:38;;;;;;;51.33;21.70;;;2.50;99.90;;;;;;4340527;32;20197;-72
2020/12/22 11:46:06;;;;;;;49.40;21.93;;;2.50;99.90;;;;;;4379990;32;20152;-73
2020/12/22 11:48:36;;;;;;;48.03;21.33;;;2.50;99.90;;;;;;4379875;32;20143;-73
2020/12/22 11:51:03;;;;;;;52.13;22.70;;;2.50;99.90;;;;;;4380826;32;20198;-72
2020/12/22 11:53:29;;;;;;;51.97;22.47;;;2.50;99.90;;;;;;4379636;32;20156;-71
2020/12/22 11:55:56;;;;;;;47.87;22.47;;;2.50;99.90;;;;;;4379623;32;20136;-72
2020/12/22 11:58:22;;;;;;;53.83;22.03;;;2.50;99.90;;;;;;4379676;32;20148;-73
2020/12/22 12:00:49;;;;;;;46.60;20.80;;;2.60;99.90;;;;;;4380192;32;20140;-73
2020/12/22 12:03:15;;;;;;;49.70;21.77;;;2.60;99.90;;;;;;4379144;32;20457;-73
2020/12/22 12:05:42;;;;;;;51.43;22.83;;;2.50;99.90;;;;;;4378841;32;20144;-72
2020/12/22 12:08:08;;;;;;;53.37;23.17;;;2.60;99.90;;;;;;4379608;32;20181;-73
2020/12/22 12:10:35;;;;;;;50.90;23.10;;;2.60;99.90;;;;;;4379502;32;20233;-71
2020/12/22 12:13:01;;;;;;;51.10;21.97;;;2.60;99.90;;;;;;4379484;32;20156;-71
2020/12/22 12:15:28;;;;;;;46.97;20.57;;;2.60;99.90;;;;;;4379471;32;20178;-72
2020/12/22 12:17:54;;;;;;;48.87;21.27;;;2.60;99.90;;;;;;4379478;32;20147;-72
2020/12/22 12:20:24;;;;;;;52.13;22.73;;;2.70;99.90;;;;;;4380938;32;20156;-71
2020/12/22 12:22:52;;;;;;;48.63;21.80;;;2.60;99.90;;;;;;4379875;32;20144;-71
2020/12/22 12:25:18;;;;;;;50.80;22.63;;;2.70;99.90;;;;;;4379405;32;20501;-72
2020/12/22 12:27:45;;;;;;;49.43;20.70;;;2.70;99.90;;;;;;4379307;32;20179;-71
2020/12/22 12:30:12;;;;;;;47.90;20.73;;;2.70;99.90;;;;;;4379101;32;20453;-72
2020/12/22 12:32:38;;;;;;;50.47;21.57;;;2.80;99.90;;;;;;4379165;32;20166;-70
2020/12/22 12:35:05;;;;;;;47.43;21.30;;;2.80;99.90;;;;;;4379230;32;20180;-72
2020/12/22 12:37:32;;;;;;;43.27;20.13;;;2.80;99.90;;;;;;4379380;32;20139;-73
2020/12/22 12:39:58;;;;;;;48.10;20.33;;;2.80;99.90;;;;;;4379149;32;20172;-71
2020/12/22 12:42:28;;;;;;;47.77;20.17;;;2.80;99.90;;;;;;4378930;32;20198;-72
2020/12/22 12:44:55;;;;;;;44.63;20.07;;;2.80;99.90;;;;;;4379123;32;20144;-73
2020/12/22 12:47:22;;;;;;;44.30;19.77;;;2.90;99.90;;;;;;4380787;32;20136;-72